Weather at Wetaskiwin Regional Airport

Public forecast

Using degrees Celsius for public forecast. Weather courtesy of forecast.io.

Closest aviation weather report (METAR) to Wetaskiwin Regional Airport

Closest report is Edmonton International Airport, 21.6 nm (40.0 km) NNW. Retrieved 2022/06/29 21:00 UTC (23 minutes ago):

CYEG 292100Z 31008KT 240V330 20SM BKN052TCU BKN240 19/10 A2984 RMK TCU7CI1 CI TR SLP112 DENSITY ALT 3500FT

Closest aviation forecast (TAF) to Wetaskiwin Regional Airport

Closest forecast is Edmonton International Airport, 21.6 nm (40.0 km) NNW. Retrieved 2022/06/29 21:43 UTC (0 seconds ago):

TAF CYEG 292040Z 2921/3018 27005KT P6SM SCT030 BKN060 TEMPO 2921/3002 P6SM -SHRA SCT020 BKN040 PROB30 2921/2923 VRB20G30KT 5SM TSRA BKN025CB FM300200 30008KT P6SM SCT060 TEMPO 3002/3015 BKN060 FM301500 32010KT P6SM FEW060 RMK NXT FCST BY 300000Z